createdAt,value
2022-11-24T00:02:26.537Z,99304.81
2022-11-24T00:04:56.194Z,99307.28
2022-11-24T00:07:25.856Z,99305.50
2022-11-24T00:09:55.447Z,99304.72
2022-11-24T00:12:24.993Z,99311.03
2022-11-24T00:14:57.194Z,99310.22
2022-11-24T00:17:26.820Z,99308.56
2022-11-24T00:19:56.382Z,99312.28
2022-11-24T00:22:25.946Z,99314.13
2022-11-24T00:24:55.775Z,99308.94
2022-11-24T00:27:25.338Z,99316.84
2022-11-24T00:29:57.806Z,99315.09
2022-11-24T00:32:27.581Z,99320.28
2022-11-24T00:34:57.131Z,99321.94
2022-11-24T00:37:26.723Z,99317.47
2022-11-24T00:39:56.292Z,99308.63
2022-11-24T00:42:25.870Z,99312.13
2022-11-24T00:44:58.044Z,99314.69
2022-11-24T00:47:28.823Z,99318.22
2022-11-24T00:49:58.370Z,99312.16
2022-11-24T00:52:27.944Z,99318.34
2022-11-24T00:54:57.512Z,99318.34
2022-11-24T00:57:27.066Z,99321.81
2022-11-24T00:59:59.209Z,99323.53
2022-11-24T01:02:29.704Z,99325.19
2022-11-24T01:04:59.279Z,99327.75
2022-11-24T01:07:28.919Z,99325.97
2022-11-24T01:09:58.500Z,99333.78
2022-11-24T01:12:28.477Z,99330.31
2022-11-24T01:15:01.094Z,99340.00
2022-11-24T01:17:30.771Z,99353.09
2022-11-24T01:20:00.391Z,99339.97
2022-11-24T01:22:30.008Z,99350.34
2022-11-24T01:24:59.603Z,99356.34
2022-11-24T01:27:29.192Z,99345.78
2022-11-24T01:30:01.568Z,99348.34
2022-11-24T01:32:32.379Z,99349.00
2022-11-24T01:35:01.969Z,99354.84
2022-11-24T01:37:31.750Z,99357.06
2022-11-24T01:40:01.341Z,99343.47
2022-11-24T01:42:42.629Z,99352.50
2022-11-24T01:45:43.292Z,99351.94
2022-11-24T01:48:18.077Z,99348.09
2022-11-24T01:50:48.254Z,99356.53
2022-11-24T01:53:18.037Z,99356.38
2022-11-24T01:55:47.671Z,99350.28
2022-11-24T01:58:21.028Z,99357.50
2022-11-24T02:00:53.970Z,99354.28
2022-11-24T02:03:34.613Z,99363.28
2022-11-24T02:06:08.155Z,99360.72
2022-11-24T02:08:42.634Z,99358.94
2022-11-24T02:11:12.499Z,99365.06
2022-11-24T02:13:43.079Z,99364.94
2022-11-24T02:16:15.720Z,99377.81
2022-11-24T02:18:46.366Z,99364.41
2022-11-24T02:21:17.870Z,99374.59
2022-11-24T02:23:53.767Z,99376.91
2022-11-24T02:26:33.855Z,99376.66
2022-11-24T02:29:03.420Z,99372.75
2022-11-24T02:31:33.212Z,99375.81
2022-11-24T02:34:02.827Z,99381.59
2022-11-24T02:36:32.574Z,99383.91
2022-11-24T02:39:02.379Z,99380.06
2022-11-24T02:41:34.489Z,99378.94
2022-11-24T02:44:04.660Z,99383.94
2022-11-24T02:46:34.332Z,99383.72
2022-11-24T02:49:03.869Z,99381.81
2022-11-24T02:51:34.442Z,99386.00
2022-11-24T02:54:04.004Z,99384.94
2022-11-24T02:56:36.143Z,99377.78
2022-11-24T02:59:05.733Z,99387.28
2022-11-24T03:01:35.285Z,99385.44
2022-11-24T03:04:04.907Z,99387.16
2022-11-24T03:06:34.463Z,99388.00
2022-11-24T03:09:04.322Z,99388.00
2022-11-24T03:11:36.461Z,99386.38
2022-11-24T03:14:06.440Z,99392.63
2022-11-24T03:16:36.260Z,99392.00
2022-11-24T03:19:06.663Z,99387.84
2022-11-24T03:21:36.277Z,99390.84
2022-11-24T03:24:06.034Z,99393.97
2022-11-24T03:26:38.476Z,99391.81
2022-11-24T03:29:08.048Z,99398.34
2022-11-24T03:31:37.811Z,99396.81
2022-11-24T03:34:07.421Z,99393.41
2022-11-24T03:36:36.972Z,99403.94
2022-11-24T03:39:07.205Z,99395.16
2022-11-24T03:41:39.360Z,99408.19
2022-11-24T03:44:08.902Z,99407.25
2022-11-24T03:46:39.022Z,99407.16
2022-11-24T03:49:08.655Z,99409.44
2022-11-24T03:51:38.298Z,99399.63
2022-11-24T03:54:08.255Z,99403.97
2022-11-24T03:56:40.378Z,99405.81
2022-11-24T03:59:09.982Z,99409.25
2022-11-24T04:01:39.575Z,99416.00
2022-11-24T04:04:09.174Z,99417.38
2022-11-24T04:06:38.703Z,99416.03
2022-11-24T04:09:09.061Z,99420.03
2022-11-24T04:11:53.627Z,99421.31
2022-11-24T04:14:23.206Z,99418.31
2022-11-24T04:16:52.749Z,99422.41
2022-11-24T04:19:22.347Z,99422.09
2022-11-24T04:21:52.094Z,99424.53
2022-11-24T04:24:21.690Z,99428.81
2022-11-24T04:26:54.514Z,99427.75
2022-11-24T04:29:24.132Z,99434.63
2022-11-24T04:31:53.782Z,99431.94
2022-11-24T04:34:23.292Z,99432.78
2022-11-24T04:36:53.435Z,99431.94
2022-11-24T04:39:28.459Z,99436.34
2022-11-24T04:42:01.467Z,99440.69
2022-11-24T04:44:31.232Z,99440.78
2022-11-24T04:47:01.077Z,99449.59
2022-11-24T04:49:30.752Z,99453.06
2022-11-24T04:52:00.543Z,99452.94
2022-11-24T04:54:30.320Z,99456.34
2022-11-24T04:57:02.617Z,99459.78
2022-11-24T04:59:32.179Z,99461.50
2022-11-24T05:02:01.787Z,99467.47
2022-11-24T05:04:31.971Z,99460.22
2022-11-24T05:07:01.693Z,99474.88
2022-11-24T05:09:48.171Z,99465.13
2022-11-24T05:12:24.546Z,99466.72
2022-11-24T05:14:54.124Z,99473.66
2022-11-24T05:17:23.724Z,99475.34
2022-11-24T05:19:53.280Z,99479.63
2022-11-24T05:22:22.807Z,99490.94
2022-11-24T05:24:52.326Z,99488.19
2022-11-24T05:27:24.674Z,99489.91
2022-11-24T05:29:54.209Z,99488.03
2022-11-24T05:32:23.758Z,99490.66
2022-11-24T05:34:54.621Z,99493.47
2022-11-24T05:37:25.649Z,99494.53
2022-11-24T05:39:55.184Z,99498.09
2022-11-24T05:42:44.907Z,99510.34
2022-11-24T05:45:18.309Z,99509.41
2022-11-24T05:47:48.239Z,99515.47
2022-11-24T05:50:19.234Z,99517.97
2022-11-24T05:52:49.166Z,99511.84
2022-11-24T05:55:19.619Z,99519.03
2022-11-24T05:57:51.851Z,99523.66
2022-11-24T06:00:21.794Z,99525.53
2022-11-24T06:02:51.665Z,99526.28
2022-11-24T06:05:21.792Z,99539.34
2022-11-24T06:07:52.339Z,99532.13
2022-11-24T06:10:23.911Z,99538.13
2022-11-24T06:12:56.255Z,99537.13
2022-11-24T06:15:26.172Z,99541.56
2022-11-24T06:17:57.423Z,99539.84
2022-11-24T06:20:32.454Z,99553.03
2022-11-24T06:23:02.690Z,99552.13
2022-11-24T06:25:33.111Z,99551.09
2022-11-24T06:28:07.724Z,99556.25
2022-11-24T06:30:37.324Z,99559.56
2022-11-24T06:33:06.902Z,99568.22
2022-11-24T06:35:36.480Z,99573.25
2022-11-24T06:38:07.647Z,99585.44
2022-11-24T06:40:38.433Z,99585.28
2022-11-24T06:43:10.559Z,99580.75
2022-11-24T06:45:40.111Z,99592.84
2022-11-24T06:48:09.673Z,99593.56
2022-11-24T06:50:39.335Z,99593.50
2022-11-24T06:53:08.905Z,99593.41
2022-11-24T06:55:38.576Z,99598.78
2022-11-24T06:58:10.716Z,99599.78
2022-11-24T07:00:40.595Z,99600.78
2022-11-24T07:03:10.455Z,99603.41
2022-11-24T07:05:39.994Z,99599.84
2022-11-24T07:08:13.206Z,99606.69
2022-11-24T07:10:47.044Z,99610.91
2022-11-24T07:13:19.230Z,99621.28
2022-11-24T07:15:48.746Z,99622.78
2022-11-24T07:18:18.289Z,99630.53
2022-11-24T07:20:47.859Z,99638.28
2022-11-24T07:23:17.364Z,99646.06
2022-11-24T07:25:46.879Z,99645.97
2022-11-24T07:28:18.967Z,99658.19
2022-11-24T07:30:48.475Z,99654.53
2022-11-24T07:33:21.264Z,99665.09
2022-11-24T07:35:50.838Z,99670.31
2022-11-24T07:38:20.344Z,99676.38
2022-11-24T07:40:50.184Z,99680.75
2022-11-24T07:43:22.748Z,99680.59
2022-11-24T07:45:54.406Z,99683.16
2022-11-24T07:48:24.007Z,99685.78
2022-11-24T07:50:56.036Z,99698.16
2022-11-24T07:53:25.942Z,99704.28
2022-11-24T07:55:58.156Z,99707.69
2022-11-24T07:58:33.002Z,99717.41
2022-11-24T08:01:03.133Z,99717.41
2022-11-24T08:03:32.821Z,99715.56
2022-11-24T08:08:52.630Z,99730.44
2022-11-24T08:11:22.139Z,99739.31
2022-11-24T08:13:54.254Z,99742.72
2022-11-24T08:16:23.962Z,99747.94
2022-11-24T08:18:54.723Z,99750.50
2022-11-24T08:21:25.529Z,99756.56
2022-11-24T08:23:57.143Z,99760.94
2022-11-24T08:26:27.090Z,99756.41
2022-11-24T08:29:00.836Z,99762.44
2022-11-24T08:31:33.935Z,99761.47
2022-11-24T08:34:04.351Z,99754.34
2022-11-24T08:36:34.796Z,99767.41
2022-11-24T08:39:05.149Z,99766.25
2022-11-24T08:41:34.746Z,99763.47
2022-11-24T08:44:08.451Z,99770.34
2022-11-24T08:46:38.050Z,99767.69
2022-11-24T08:49:07.661Z,99781.66
2022-11-24T08:51:37.316Z,99774.63
2022-11-24T08:54:07.023Z,99775.31
2022-11-24T08:56:36.729Z,99783.16
2022-11-24T08:59:08.965Z,99794.38
2022-11-24T09:01:54.739Z,99788.16
2022-11-24T09:04:24.375Z,99796.00
2022-11-24T09:06:53.959Z,99796.84
2022-11-24T09:09:23.479Z,99803.78
2022-11-24T09:11:53.005Z,99801.06
2022-11-24T09:14:25.178Z,99816.88
2022-11-24T09:16:54.995Z,99811.59
2022-11-24T09:19:24.927Z,99815.84
2022-11-24T09:21:54.541Z,99822.91
2022-11-24T09:24:24.152Z,99826.38
2022-11-24T09:26:53.703Z,99829.78
2022-11-24T09:29:25.977Z,99833.97
2022-11-24T09:31:55.520Z,99838.19
2022-11-24T09:34:25.050Z,99837.94
2022-11-24T09:36:54.669Z,99840.22
2022-11-24T09:39:24.420Z,99849.66
2022-11-24T09:42:04.083Z,99857.47
2022-11-24T09:44:53.024Z,99863.66
2022-11-24T09:47:29.200Z,99867.22
2022-11-24T09:50:02.369Z,99869.03
2022-11-24T09:52:42.390Z,99864.50
2022-11-24T09:55:28.742Z,99867.94
2022-11-24T09:58:06.307Z,99874.88
2022-11-24T10:00:39.462Z,99878.22
2022-11-24T10:03:09.286Z,99874.56
2022-11-24T10:05:39.115Z,99881.41
2022-11-24T10:08:21.787Z,99880.25
2022-11-24T10:10:55.112Z,99883.47
2022-11-24T10:13:35.508Z,99885.91
2022-11-24T10:16:17.912Z,99886.13
2022-11-24T10:18:59.837Z,99884.34
2022-11-24T10:21:38.952Z,99887.16
2022-11-24T10:24:25.384Z,99897.25
2022-11-24T10:26:59.712Z,99900.41
2022-11-24T10:29:32.223Z,99899.06
2022-11-24T10:32:08.643Z,99905.19
2022-11-24T10:34:41.019Z,99905.34
2022-11-24T10:37:17.800Z,99919.16
2022-11-24T10:39:58.537Z,99911.38
2022-11-24T10:42:31.534Z,99913.34
2022-11-24T10:45:05.132Z,99909.59
2022-11-24T10:47:37.293Z,99909.25
2022-11-24T10:50:11.869Z,99905.69
2022-11-24T10:52:44.860Z,99901.41
2022-11-24T10:55:14.504Z,99908.66
2022-11-24T10:57:45.270Z,99906.84
2022-11-24T11:00:34.240Z,99908.47
2022-11-24T11:03:21.905Z,99917.81
2022-11-24T11:05:54.015Z,99925.34
2022-11-24T11:08:26.687Z,99922.91
2022-11-24T11:11:15.640Z,99917.06
2022-11-24T11:14:00.050Z,99911.88
2022-11-24T11:16:37.650Z,99919.59
2022-11-24T11:19:50.870Z,99922.59
2022-11-24T11:22:26.935Z,99929.88
2022-11-24T11:25:07.125Z,99934.94
2022-11-24T11:27:36.755Z,99932.94
2022-11-24T11:36:14.781Z,99932.63
2022-11-24T11:38:45.032Z,99933.47
2022-11-24T11:41:21.888Z,99929.53
2022-11-24T11:43:55.290Z,99937.00
2022-11-24T11:46:26.020Z,99938.94
2022-11-24T11:48:55.631Z,99937.91
2022-11-24T11:51:45.347Z,99947.50
2022-11-24T11:54:21.603Z,99953.31
2022-11-24T11:56:53.150Z,99938.63
2022-11-24T11:59:33.936Z,99947.78
2022-11-24T12:02:27.990Z,99950.66
2022-11-24T12:05:00.050Z,99953.31
2022-11-24T12:07:46.318Z,99946.47
2022-11-24T12:10:23.967Z,99945.97
2022-11-24T12:13:06.482Z,99939.84
2022-11-24T12:15:40.716Z,99938.84
2022-11-24T12:18:55.981Z,99939.38
2022-11-24T12:21:26.241Z,99941.69
2022-11-24T12:24:10.545Z,99938.88
2022-11-24T12:26:44.833Z,99940.59
2022-11-24T12:29:33.000Z,99943.00
2022-11-24T12:32:08.628Z,99942.56
2022-11-24T12:34:45.358Z,99947.44
2022-11-24T12:37:25.620Z,99942.28
2022-11-24T12:40:01.708Z,99949.56
2022-11-24T12:42:38.796Z,99956.97
2022-11-24T12:45:15.778Z,99950.97
2022-11-24T12:47:58.943Z,99953.72
2022-11-24T12:50:30.958Z,99953.09
2022-11-24T12:53:03.163Z,99946.34
2022-11-24T12:55:36.332Z,99941.44
2022-11-24T12:58:11.421Z,99942.72
2022-11-24T13:00:51.069Z,99940.44
2022-11-24T13:03:32.484Z,99944.53
2022-11-24T13:06:05.552Z,99948.53
2022-11-24T13:08:35.235Z,99950.63
2022-11-24T13:11:33.471Z,99950.94
2022-11-24T13:14:03.885Z,99946.81
2022-11-24T13:19:24.623Z,99951.63
2022-11-24T13:22:21.652Z,99951.88
2022-11-24T13:25:11.916Z,99959.16
2022-11-24T13:27:49.170Z,99968.09
2022-11-24T13:30:51.419Z,99969.91
2022-11-24T13:33:33.696Z,99973.41
2022-11-24T13:36:35.686Z,99969.91
2022-11-24T13:39:07.359Z,99974.50
2022-11-24T13:42:10.121Z,99970.34
2022-11-24T13:45:03.139Z,99973.53
2022-11-24T13:47:38.289Z,99984.41
2022-11-24T13:50:10.582Z,99970.41
2022-11-24T13:52:51.333Z,99984.41
2022-11-24T13:55:33.972Z,99980.66
2022-11-24T13:58:23.523Z,99983.94
2022-11-24T14:01:24.873Z,99978.44
2022-11-24T14:07:05.583Z,99984.28
2022-11-24T14:09:39.557Z,99984.34
2022-11-24T14:12:16.290Z,99980.06
2022-11-24T14:14:47.398Z,99974.94
2022-11-24T14:17:29.410Z,99983.03
2022-11-24T14:20:00.781Z,99970.88
2022-11-24T14:22:44.146Z,99968.41
2022-11-24T14:25:23.324Z,99967.69
2022-11-24T14:27:53.038Z,99975.84
2022-11-24T14:30:24.900Z,99978.63
2022-11-24T14:33:01.864Z,99971.00
2022-11-24T14:35:33.447Z,99973.91
2022-11-24T14:38:05.114Z,99971.44
2022-11-24T14:40:42.269Z,99976.06
2022-11-24T14:43:23.826Z,99972.94
2022-11-24T14:45:56.241Z,99981.16
2022-11-24T14:48:30.731Z,99972.72
2022-11-24T14:51:09.459Z,99974.88
2022-11-24T14:53:39.373Z,99979.56
2022-11-24T14:56:16.625Z,99978.00
2022-11-24T14:58:46.228Z,99974.84
2022-11-24T15:01:32.749Z,99972.41
2022-11-24T15:07:20.094Z,99959.66
2022-11-24T15:09:53.668Z,99961.72
2022-11-24T15:12:30.664Z,99973.63
2022-11-24T15:15:02.322Z,99972.31
2022-11-24T15:17:32.723Z,99981.50
2022-11-24T15:20:11.803Z,99978.41
2022-11-24T15:22:43.534Z,99981.44
2022-11-24T15:25:32.540Z,99986.13
2022-11-24T15:28:02.365Z,99990.06
2022-11-24T15:30:32.332Z,99989.59
2022-11-24T15:33:02.485Z,99994.25
2022-11-24T15:35:35.695Z,99991.06
2022-11-24T15:38:05.328Z,99991.47
2022-11-24T15:40:34.972Z,99996.19
2022-11-24T15:43:06.700Z,99992.94
2022-11-24T15:45:37.115Z,99989.59
2022-11-24T15:48:06.921Z,99994.13
2022-11-24T15:50:39.430Z,99990.72
2022-11-24T15:53:09.229Z,99992.53
2022-11-24T15:55:39.540Z,99992.66
2022-11-24T15:58:10.238Z,100000.69
2022-11-24T16:00:40.500Z,99999.03
2022-11-24T16:03:44.459Z,100005.28
2022-11-24T16:06:02.415Z,100010.59
2022-11-24T16:08:31.965Z,100015.06
2022-11-24T16:11:01.575Z,100019.47
2022-11-24T16:13:31.193Z,100013.38
2022-11-24T16:16:00.880Z,100016.09
2022-11-24T16:18:31.617Z,100012.72
2022-11-24T16:21:04.153Z,100019.03
2022-11-24T16:23:33.728Z,100028.06
2022-11-24T16:26:03.406Z,100020.28
2022-11-24T16:28:33.265Z,100035.31
2022-11-24T16:31:02.863Z,100032.88
2022-11-24T16:33:38.651Z,100032.16
2022-11-24T16:36:11.853Z,100029.78
2022-11-24T16:38:41.484Z,100031.69
2022-11-24T16:41:11.682Z,100040.63
2022-11-24T16:43:41.585Z,100038.06
2022-11-24T16:46:22.248Z,100042.56
2022-11-24T16:48:53.098Z,100040.09
2022-11-24T16:51:29.896Z,100049.84
2022-11-24T16:54:01.922Z,100044.72
2022-11-24T16:56:32.186Z,100042.88
2022-11-24T16:59:01.804Z,100040.16
2022-11-24T17:01:33.034Z,100039.91
2022-11-24T17:04:03.751Z,100047.69
2022-11-24T17:06:38.253Z,100053.69
2022-11-24T17:09:07.837Z,100041.38
2022-11-24T17:11:37.485Z,100050.97
2022-11-24T17:14:07.212Z,100038.69
2022-11-24T17:16:36.814Z,100044.81
2022-11-24T17:19:06.647Z,100051.03
2022-11-24T17:21:38.819Z,100054.63
2022-11-24T17:24:15.089Z,100048.69
2022-11-24T17:26:48.768Z,100057.63
2022-11-24T17:29:18.785Z,100051.53
2022-11-24T17:31:49.167Z,100058.56
2022-11-24T17:34:18.805Z,100064.81
2022-11-24T17:36:51.486Z,100072.75
2022-11-24T17:39:24.788Z,100067.56
2022-11-24T17:41:54.686Z,100071.16
2022-11-24T17:44:24.252Z,100068.50
2022-11-24T17:46:53.838Z,100078.22
2022-11-24T17:49:23.404Z,100073.97
2022-11-24T17:51:55.650Z,100067.94
2022-11-24T17:54:45.579Z,100073.38
2022-11-24T17:57:14.959Z,100070.03
2022-11-24T17:59:44.490Z,100059.72
2022-11-24T18:02:14.193Z,100071.25
2022-11-24T18:04:43.743Z,100078.38
2022-11-24T18:07:15.925Z,100080.16
2022-11-24T18:09:45.480Z,100074.91
2022-11-24T18:12:15.240Z,100077.47
2022-11-24T18:14:44.830Z,100077.38
2022-11-24T18:17:14.483Z,100081.78
2022-11-24T18:19:45.686Z,100079.19
2022-11-24T18:22:21.003Z,100076.59
2022-11-24T18:24:56.722Z,100078.44
2022-11-24T18:27:26.491Z,100075.91
2022-11-24T18:29:56.323Z,100077.72
2022-11-24T18:32:26.028Z,100083.94
2022-11-24T18:34:55.585Z,100080.56
2022-11-24T18:37:27.763Z,100078.00
2022-11-24T18:39:57.311Z,100080.78
2022-11-24T18:42:26.907Z,100073.06
2022-11-24T18:44:56.622Z,100079.31
2022-11-24T18:47:26.302Z,100085.66
2022-11-24T18:49:59.160Z,100087.47
2022-11-24T18:52:31.377Z,100080.59
2022-11-24T18:55:03.888Z,100079.88
2022-11-24T18:57:33.732Z,100084.41
2022-11-24T19:00:03.341Z,100079.22
2022-11-24T19:02:33.027Z,100086.31
2022-11-24T19:05:03.060Z,100081.09
2022-11-24T19:07:35.289Z,100082.06
2022-11-24T19:10:04.876Z,100082.09
2022-11-24T19:12:34.491Z,100081.31
2022-11-24T19:15:04.074Z,100074.31
2022-11-24T19:17:33.690Z,100081.38
2022-11-24T19:20:03.252Z,100069.16
2022-11-24T19:22:35.516Z,100070.13
2022-11-24T19:25:05.414Z,100066.59
2022-11-24T19:27:35.684Z,100066.59
2022-11-24T19:30:05.308Z,100064.66
2022-11-24T19:32:35.113Z,100061.97
2022-11-24T19:35:04.715Z,100057.41
2022-11-24T19:37:37.076Z,100056.41
2022-11-24T19:40:07.367Z,100056.31
2022-11-24T19:42:37.030Z,100060.63
2022-11-24T19:45:07.678Z,100062.31
2022-11-24T19:47:37.255Z,100054.47
2022-11-24T19:50:10.502Z,100061.56
2022-11-24T19:52:42.885Z,100071.97
2022-11-24T19:55:12.713Z,100065.00
2022-11-24T19:57:42.329Z,100065.03
2022-11-24T20:00:12.795Z,100066.81
2022-11-24T20:02:42.478Z,100064.16
2022-11-24T20:05:12.202Z,100067.63
2022-11-24T20:07:44.454Z,100059.72
2022-11-24T20:10:14.133Z,100054.41
2022-11-24T20:12:43.756Z,100056.06
2022-11-24T20:15:13.445Z,100058.72
2022-11-24T20:17:43.053Z,100061.47
2022-11-24T20:20:13.717Z,100058.09
2022-11-24T20:22:46.648Z,100060.84
2022-11-24T20:25:16.292Z,100061.81
2022-11-24T20:27:45.904Z,100064.59
2022-11-24T20:30:15.764Z,100072.50
2022-11-24T20:32:45.404Z,100065.50
2022-11-24T20:35:18.191Z,100066.38
2022-11-24T20:37:50.684Z,100069.06
2022-11-24T20:40:20.260Z,100079.63
2022-11-24T20:42:49.810Z,100075.38
2022-11-24T20:45:19.428Z,100075.53
2022-11-24T20:47:48.982Z,100071.31
2022-11-24T20:50:18.620Z,100069.69
2022-11-24T20:52:50.764Z,100074.09
2022-11-24T20:55:20.391Z,100069.78
2022-11-24T20:57:49.973Z,100066.38
2022-11-24T21:00:19.979Z,100071.69
2022-11-24T21:02:49.837Z,100071.72
2022-11-24T21:05:19.610Z,100069.16
2022-11-24T21:07:51.856Z,100067.38
2022-11-24T21:10:21.489Z,100065.63
2022-11-24T21:12:51.051Z,100064.78
2022-11-24T21:15:20.584Z,100062.13
2022-11-24T21:17:50.161Z,100066.41
2022-11-24T21:20:19.812Z,100069.88
2022-11-24T21:22:51.998Z,100071.63
2022-11-24T21:25:21.644Z,100069.91
2022-11-24T21:27:51.244Z,100066.31
2022-11-24T21:30:20.893Z,100069.78
2022-11-24T21:32:50.642Z,100070.69
2022-11-24T21:35:20.300Z,100071.53
2022-11-24T21:37:52.588Z,100061.00
2022-11-24T21:40:22.182Z,100062.75
2022-11-24T21:42:54.036Z,100054.03
2022-11-24T21:45:23.778Z,100059.31
2022-11-24T21:47:53.483Z,100057.59
2022-11-24T21:50:23.140Z,100056.75
2022-11-24T21:52:59.258Z,100057.66
2022-11-24T21:55:31.665Z,100047.97
2022-11-24T21:58:01.210Z,100057.53
2022-11-24T22:00:30.759Z,100055.66
2022-11-24T22:03:00.347Z,100057.28
2022-11-24T22:05:29.920Z,100049.19
2022-11-24T22:08:02.104Z,100044.56
2022-11-24T22:10:31.634Z,100035.53
2022-11-24T22:13:01.274Z,100040.47
2022-11-24T22:15:30.836Z,100053.34
2022-11-24T22:18:00.906Z,100046.94
2022-11-24T22:20:30.507Z,100048.44
2022-11-24T22:23:02.646Z,100049.16
2022-11-24T22:25:32.239Z,100034.22
2022-11-24T22:28:01.893Z,100052.69
2022-11-24T22:30:31.457Z,100051.00
2022-11-24T22:33:00.991Z,100046.69
2022-11-24T22:35:30.538Z,100042.34
2022-11-24T22:38:02.713Z,100043.13
2022-11-24T22:40:32.262Z,100034.22
2022-11-24T22:43:01.847Z,100022.75
2022-11-24T22:45:31.450Z,100017.47
2022-11-24T22:48:01.153Z,100028.72
2022-11-24T22:50:30.695Z,100023.41
2022-11-24T22:53:02.872Z,100015.47
2022-11-24T22:55:32.409Z,100019.03
2022-11-24T22:58:01.989Z,100019.03
2022-11-24T23:00:31.707Z,100014.56
2022-11-24T23:03:01.360Z,100018.03
2022-11-24T23:05:31.205Z,100015.28
2022-11-24T23:08:03.845Z,100014.16
2022-11-24T23:10:33.396Z,100014.81
2022-11-24T23:13:02.963Z,100013.72
2022-11-24T23:15:32.863Z,100010.91
2022-11-24T23:18:02.457Z,100009.72
2022-11-24T23:20:32.023Z,100008.59
2022-11-24T23:23:04.191Z,100008.31
2022-11-24T23:25:33.727Z,100009.03
2022-11-24T23:28:03.316Z,100007.88
2022-11-24T23:30:32.961Z,100016.47
2022-11-24T23:33:02.763Z,100018.09
2022-11-24T23:35:32.387Z,100007.44
2022-11-24T23:38:08.157Z,99997.66
2022-11-24T23:40:37.815Z,100000.16
2022-11-24T23:43:07.402Z,100000.91
2022-11-24T23:45:36.963Z,99997.38
2022-11-24T23:48:08.588Z,100005.16
2022-11-24T23:50:38.228Z,100005.94
2022-11-24T23:53:10.530Z,99994.50
2022-11-24T23:55:40.056Z,99989.16
2022-11-24T23:58:09.868Z,99991.75
